This is the latest recevied weather packets stored in our database for station/object IU2EVW-3. If no packets are shown the sender has not sent any weather packets the latest 10 day(s).
| Time | Temp. | Humidity | Pressure | Rain* | Wind** | Luminosity | Snow |
|---|---|---|---|---|---|---|---|
| 1777958552 | 13.89° C | 71% | 1013.6 hPa | - | - | - | - |
| 1777957351 | 14.44° C | 66% | 1013.4 hPa | - | - | - | - |
| 1777956149 | 14.44° C | 63% | 1013.2 hPa | - | - | - | - |
| 1777954948 | 15° C | 58% | 1013.1 hPa | - | - | - | - |
| 1777953747 | 15° C | 55% | 1012.9 hPa | - | - | - | - |
| 1777952546 | 15° C | 55% | 1013 hPa | - | - | - | - |
| 1777951345 | 15° C | 55% | 1013.2 hPa | - | - | - | - |
| 1777950144 | 15° C | 54% | 1013.5 hPa | - | - | - | - |
| 1777948943 | 15° C | 53% | 1013.7 hPa | - | - | - | - |
| 1777947741 | 15° C | 54% | 1013.8 hPa | - | - | - | - |
| 1777946540 | 15° C | 57% | 1014 hPa | - | - | - | - |
| 1777945339 | 14.44° C | 58% | 1014.1 hPa | - | - | - | - |
| 1777944138 | 14.44° C | 59% | 1014.5 hPa | - | - | - | - |
| 1777942937 | 15° C | 59% | 1014.9 hPa | - | - | - | - |
| 1777941736 | 15° C | 57% | 1015 hPa | - | - | - | - |
| 1777940535 | 15° C | 57% | 1015.4 hPa | - | - | - | - |
| 1777939333 | 15° C | 55% | 1015.6 hPa | - | - | - | - |
| 1777938132 | 15.56° C | 55% | 1015.9 hPa | - | - | - | - |
| 1777936931 | 15.56° C | 55% | 1016.1 hPa | - | - | - | - |
| 1777935730 | 15.56° C | 55% | 1016.3 hPa | - | - | - | - |
| 1777934529 | 15.56° C | 55% | 1016.3 hPa | - | - | - | - |
| 1777933327 | 16.11° C | 51% | 1016.5 hPa | - | - | - | - |
| 1777932126 | 16.11° C | 48% | 1016.5 hPa | - | - | - | - |
| 1777930925 | 16.67° C | 46% | 1016.6 hPa | - | - | - | - |
| 1777929723 | 16.67° C | 43% | 1016.8 hPa | - | - | - | - |
* Rain since midnight (hover to see other rain measurements)
** Current wind speed in m/s (hover to see current wind gust speed)